首页
METAR-TAF:

METAR-TAF

机场 :

波士顿, 马萨诸塞州, 美国

爱德华·劳伦斯·洛根将军国际机场

纬度: 42-21-38N, 经度: 071-00-38W, 海拔: 6米

当前天气观测

该预报发布于55分钟前的22:54 UTC
风速9节,风向西北,有时为19节阵风
温度 -2°C
湿度 59%
气压 1013 hPa
能見度: 16.1公里
少量云层高于4500英尺
少量云层高于20000英尺

METAR: KBOS 182254Z 31009G19KT 10SM FEW045 FEW200 M02/M09 A2990 RMK AO2 SLP125 T10171089

时间: 18:49 (23:49 UTC)

预报

该预报发布于13分钟前的23:36 UTC
预报有效从19日的 00点(UTC)到 20日的 06点(UTC)
风速10节,风向西北
能見度: 10公里
少量云层高于3500英尺
从 19日的 0800点(UTC)
风速7节,风向西转西北
能見度: 10公里
散云层高于15000英尺
从 19日的 1400点(UTC)
风速10节,风向西
能見度: 10公里
散云层高于11000英尺
从 19日的 1700点(UTC)
风速6节,风向西
能見度: 10公里
少量云层高于3500英尺
从 20日的 0300点(UTC)
风速8节,风向西转西南
能見度: 10公里
多云层高于14000英尺

TAF: KBOS 182336Z 1900/2006 31010KT P6SM FEW035 FM190800 30007KT P6SM SCT150 FM191400 28010KT P6SM SCT110 FM191700 28006KT P6SM FEW035 FM200300 24008KT P6SM BKN140

超过4000个机场的气象观测和天气预报(METAR&TAF报告)。

可查询的气象台以黄色和红色小点在地图上表示。

将鼠标移到小点上方,可查看气象台名称。

然后点击查看天气观测和预报。

如需切换地图:点击带黑十字的绿色按钮放大地图;点击带横线的绿色按钮缩小地图;或者点击绿色箭头查看邻近地区的地图。


METAR-TAF: